MSC Turchia — A8IL9 — position and weather

sailwx.info

Track history (hours):
 
Tides and Currents Weather Stations Pressure Air Temp Water Temp Dewpoint Dewpoint Depression Visibility Wind Speed Wind Dir Waves Ship Positions

MSC Turchia

Last reported at 2015-Mar-29 00:33 UTC. Time now 2015-Mar-31 09:49 UTC.
Position S 24°06' W 046°22'.

Length 276 m; beam 40 m; draft 14 m.

Type: Ship. MMSI: 636091212.

Date/timePositionNaut miles runAvg speedWind from/ knotsBaromVisibWave heightAir tempDewpointWater temp
2015-Mar-29 00:33S 24°06' W 046°22'8 8.5
2015-Mar-28 23:33S 23°58' W 046°18'0 0.2
2015-Mar-28 22:28S 23°58' W 046°18'0 0.0
2015-Mar-28 21:22S 23°58' W 046°17'0 0.0
2015-Mar-28 20:28S 23°58' W 046°17'0 0.0
2015-Mar-28 19:31S 23°58' W 046°17'0 0.0
2015-Mar-28 18:28S 23°58' W 046°18'0 0.0
2015-Mar-28 17:28S 23°58' W 046°17'0 0.0
2015-Mar-28 16:34S 23°58' W 046°18'0 0.0
2015-Mar-28 15:28S 23°58' W 046°17'0 0.0
2015-Mar-28 14:28S 23°58' W 046°17'0 0.0
2015-Mar-28 13:34S 23°58' W 046°18'0 0.0
2015-Mar-28 12:28S 23°58' W 046°17'0 0.0
2015-Mar-28 11:34S 23°58' W 046°18'0 0.0
2015-Mar-28 10:31S 23°58' W 046°17'0 0.0
2015-Mar-28 09:31S 23°58' W 046°17'0 0.0
2015-Mar-28 08:28S 23°58' W 046°17'0 0.0
2015-Mar-28 07:31S 23°58' W 046°17'0 0.0
2015-Mar-28 06:16S 23°58' W 046°17'0 0.0
2015-Mar-28 05:34S 23°58' W 046°17'3 2.7
2015-Mar-28 04:34S 23°60' W 046°20'1111.2
2015-Mar-28 03:33S 24°10' W 046°24'223 5.3
2015-Mar-26 09:10S 27°34' W 048°05'1014.9
2015-Mar-26 08:31S 27°43' W 048°09'10749711.9
2015-Mar-25 17:25N 31°56' E 120°53'  
2015-Mar-23 13:23S 34°44' W 057°40'1214.7
2015-Mar-23 12:33S 34°42' W 057°55'1614.9
2015-Mar-23 11:27S 34°37' W 058°14'7 7.7
2015-Mar-23 10:33S 34°35' W 058°22'0 0.0
2015-Mar-23 05:05S 34°35' W 058°22'0 0.0
2015-Mar-23 04:23S 34°35' W 058°22'0 0.0
2015-Mar-23 02:29S 34°35' W 058°22'0 0.0
2015-Mar-22 23:32S 34°35' W 058°22'1 0.1
2015-Mar-22 10:33S 34°36' W 058°21'7 6.9
2015-Mar-22 09:32S 34°37' W 058°13'1313.2
2015-Mar-22 08:33S 34°41' W 057°58'7 6.7
2015-Mar-22 07:34S 34°44' W 057°50'1010.0
2015-Mar-22 06:34S 34°45' W 057°38'9 8.5
2015-Mar-22 05:33S 34°48' W 057°28'  
2015-Mar-19 13:28S 27°60' W 048°17'1415.0
2015-Mar-19 12:33S 27°47' W 048°11'1515.0
2015-Mar-19 11:33S 27°34' W 048°04'  
Track history (hours):
 
Tides and Currents Weather Stations Pressure Air Temp Water Temp Dewpoint Dewpoint Depression Visibility Wind Speed Wind Dir Waves Ship Positions

MSC Turchia

Last reported at 2015-Mar-29 00:33 UTC. Time now 2015-Mar-31 09:49 UTC.
Position S 24°06' W 046°22'.

Length 276 m; beam 40 m; draft 14 m.

Type: Ship. MMSI: 636091212.

Date/timePositionNaut miles runAvg speedWind from/ knotsBaromVisibWave heightAir tempDewpointWater temp
2015-Mar-29 00:33S 24°06' W 046°22'8 8.5
2015-Mar-28 23:33S 23°58' W 046°18'0 0.2
2015-Mar-28 22:28S 23°58' W 046°18'0 0.0
2015-Mar-28 21:22S 23°58' W 046°17'0 0.0
2015-Mar-28 20:28S 23°58' W 046°17'0 0.0
2015-Mar-28 19:31S 23°58' W 046°17'0 0.0
2015-Mar-28 18:28S 23°58' W 046°18'0 0.0
2015-Mar-28 17:28S 23°58' W 046°17'0 0.0
2015-Mar-28 16:34S 23°58' W 046°18'0 0.0
2015-Mar-28 15:28S 23°58' W 046°17'0 0.0
2015-Mar-28 14:28S 23°58' W 046°17'0 0.0
2015-Mar-28 13:34S 23°58' W 046°18'0 0.0
2015-Mar-28 12:28S 23°58' W 046°17'0 0.0
2015-Mar-28 11:34S 23°58' W 046°18'0 0.0
2015-Mar-28 10:31S 23°58' W 046°17'0 0.0
2015-Mar-28 09:31S 23°58' W 046°17'0 0.0
2015-Mar-28 08:28S 23°58' W 046°17'0 0.0
2015-Mar-28 07:31S 23°58' W 046°17'0 0.0
2015-Mar-28 06:16S 23°58' W 046°17'0 0.0
2015-Mar-28 05:34S 23°58' W 046°17'3 2.7
2015-Mar-28 04:34S 23°60' W 046°20'1111.2
2015-Mar-28 03:33S 24°10' W 046°24'223 5.3
2015-Mar-26 09:10S 27°34' W 048°05'1014.9
2015-Mar-26 08:31S 27°43' W 048°09'10749711.9
2015-Mar-25 17:25N 31°56' E 120°53'  
2015-Mar-23 13:23S 34°44' W 057°40'1214.7
2015-Mar-23 12:33S 34°42' W 057°55'1614.9
2015-Mar-23 11:27S 34°37' W 058°14'7 7.7
2015-Mar-23 10:33S 34°35' W 058°22'0 0.0
2015-Mar-23 05:05S 34°35' W 058°22'0 0.0
2015-Mar-23 04:23S 34°35' W 058°22'0 0.0
2015-Mar-23 02:29S 34°35' W 058°22'0 0.0
2015-Mar-22 23:32S 34°35' W 058°22'1 0.1
2015-Mar-22 10:33S 34°36' W 058°21'7 6.9
2015-Mar-22 09:32S 34°37' W 058°13'1313.2
2015-Mar-22 08:33S 34°41' W 057°58'7 6.7
2015-Mar-22 07:34S 34°44' W 057°50'1010.0
2015-Mar-22 06:34S 34°45' W 057°38'9 8.5
2015-Mar-22 05:33S 34°48' W 057°28'  
2015-Mar-19 13:28S 27°60' W 048°17'1415.0
2015-Mar-19 12:33S 27°47' W 048°11'1515.0
2015-Mar-19 11:33S 27°34' W 048°04'  

Dump ship's entire track history